sensor_id;sensor_type;location;lat;lon;timestamp;P1;durP1;ratioP1;P2;durP2;ratioP2
64851;SDS011;56050;55.558;-4.644;2024-02-26T00:01:07;6.03;;;3.35;;
64851;SDS011;56050;55.558;-4.644;2024-02-26T00:03:32;6.80;;;2.90;;
64851;SDS011;56050;55.558;-4.644;2024-02-26T00:06:01;7.85;;;5.15;;
64851;SDS011;56050;55.558;-4.644;2024-02-26T00:08:28;5.88;;;3.13;;
64851;SDS011;56050;55.558;-4.644;2024-02-26T00:10:53;7.57;;;3.80;;
64851;SDS011;56050;55.558;-4.644;2024-02-26T00:13:19;7.80;;;3.72;;
64851;SDS011;56050;55.558;-4.644;2024-02-26T00:15:45;7.07;;;3.83;;
64851;SDS011;56050;55.558;-4.644;2024-02-26T00:18:11;8.10;;;3.28;;
64851;SDS011;56050;55.558;-4.644;2024-02-26T00:20:36;7.90;;;3.28;;
64851;SDS011;56050;55.558;-4.644;2024-02-26T00:23:02;7.05;;;3.78;;
64851;SDS011;56050;55.558;-4.644;2024-02-26T00:25:27;9.13;;;4.35;;
64851;SDS011;56050;55.558;-4.644;2024-02-26T00:27:53;8.13;;;3.28;;
64851;SDS011;56050;55.558;-4.644;2024-02-26T00:30:18;7.15;;;3.58;;
64851;SDS011;56050;55.558;-4.644;2024-02-26T00:32:43;9.32;;;3.55;;
64851;SDS011;56050;55.558;-4.644;2024-02-26T00:35:09;7.75;;;4.07;;
64851;SDS011;56050;55.558;-4.644;2024-02-26T00:37:34;14.70;;;4.93;;
64851;SDS011;56050;55.558;-4.644;2024-02-26T00:40:00;7.18;;;3.90;;
64851;SDS011;56050;55.558;-4.644;2024-02-26T00:42:26;12.52;;;5.25;;
64851;SDS011;56050;55.558;-4.644;2024-02-26T00:44:51;9.80;;;4.30;;
64851;SDS011;56050;55.558;-4.644;2024-02-26T00:47:16;11.13;;;3.20;;
64851;SDS011;56050;55.558;-4.644;2024-02-26T00:49:42;14.05;;;4.38;;
64851;SDS011;56050;55.558;-4.644;2024-02-26T00:52:07;10.10;;;4.13;;
64851;SDS011;56050;55.558;-4.644;2024-02-26T00:54:33;9.00;;;4.22;;
64851;SDS011;56050;55.558;-4.644;2024-02-26T00:56:58;7.60;;;5.03;;
64851;SDS011;56050;55.558;-4.644;2024-02-26T00:59:23;7.32;;;3.88;;
64851;SDS011;56050;55.558;-4.644;2024-02-26T01:01:49;7.18;;;4.03;;
64851;SDS011;56050;55.558;-4.644;2024-02-26T01:04:14;9.68;;;3.53;;
64851;SDS011;56050;55.558;-4.644;2024-02-26T01:06:40;7.80;;;3.42;;
64851;SDS011;56050;55.558;-4.644;2024-02-26T01:09:05;7.43;;;4.38;;
64851;SDS011;56050;55.558;-4.644;2024-02-26T01:11:31;8.43;;;4.50;;
64851;SDS011;56050;55.558;-4.644;2024-02-26T01:13:56;10.27;;;5.05;;
64851;SDS011;56050;55.558;-4.644;2024-02-26T01:16:22;8.38;;;3.70;;
64851;SDS011;56050;55.558;-4.644;2024-02-26T01:21:13;9.70;;;4.83;;
64851;SDS011;56050;55.558;-4.644;2024-02-26T01:23:39;7.97;;;3.80;;
64851;SDS011;56050;55.558;-4.644;2024-02-26T01:26:05;10.45;;;3.17;;
64851;SDS011;56050;55.558;-4.644;2024-02-26T01:28:30;7.03;;;3.22;;
64851;SDS011;56050;55.558;-4.644;2024-02-26T01:30:56;8.55;;;3.63;;
64851;SDS011;56050;55.558;-4.644;2024-02-26T01:33:21;5.10;;;3.10;;
64851;SDS011;56050;55.558;-4.644;2024-02-26T01:35:47;7.55;;;4.03;;
64851;SDS011;56050;55.558;-4.644;2024-02-26T01:38:12;7.93;;;3.35;;
64851;SDS011;56050;55.558;-4.644;2024-02-26T01:40:38;11.98;;;2.92;;
64851;SDS011;56050;55.558;-4.644;2024-02-26T01:43:03;9.27;;;4.32;;
64851;SDS011;56050;55.558;-4.644;2024-02-26T01:45:29;7.53;;;3.72;;
64851;SDS011;56050;55.558;-4.644;2024-02-26T01:47:54;8.40;;;3.45;;
64851;SDS011;56050;55.558;-4.644;2024-02-26T01:50:20;9.13;;;4.18;;
64851;SDS011;56050;55.558;-4.644;2024-02-26T01:52:47;10.57;;;4.43;;
64851;SDS011;56050;55.558;-4.644;2024-02-26T01:55:14;7.35;;;3.83;;
64851;SDS011;56050;55.558;-4.644;2024-02-26T01:57:41;9.55;;;3.03;;
64851;SDS011;56050;55.558;-4.644;2024-02-26T02:00:09;7.30;;;3.55;;
64851;SDS011;56050;55.558;-4.644;2024-02-26T02:02:35;7.22;;;2.13;;
64851;SDS011;56050;55.558;-4.644;2024-02-26T02:07:27;7.78;;;4.82;;
64851;SDS011;56050;55.558;-4.644;2024-02-26T02:09:54;10.95;;;4.28;;
64851;SDS011;56050;55.558;-4.644;2024-02-26T02:12:19;7.82;;;2.90;;
64851;SDS011;56050;55.558;-4.644;2024-02-26T02:14:46;8.32;;;2.45;;
64851;SDS011;56050;55.558;-4.644;2024-02-26T02:17:12;7.65;;;2.65;;
64851;SDS011;56050;55.558;-4.644;2024-02-26T02:19:37;9.23;;;3.47;;
64851;SDS011;56050;55.558;-4.644;2024-02-26T02:22:03;10.05;;;4.38;;
64851;SDS011;56050;55.558;-4.644;2024-02-26T02:24:28;8.50;;;3.05;;
64851;SDS011;56050;55.558;-4.644;2024-02-26T02:26:54;9.85;;;3.80;;
64851;SDS011;56050;55.558;-4.644;2024-02-26T02:31:45;7.28;;;4.65;;
64851;SDS011;56050;55.558;-4.644;2024-02-26T02:34:11;6.82;;;3.35;;
64851;SDS011;56050;55.558;-4.644;2024-02-26T02:39:18;10.50;;;3.53;;
64851;SDS011;56050;55.558;-4.644;2024-02-26T02:41:44;8.77;;;3.75;;
64851;SDS011;56050;55.558;-4.644;2024-02-26T02:44:09;6.28;;;2.83;;
64851;SDS011;56050;55.558;-4.644;2024-02-26T02:46:35;10.85;;;5.07;;
64851;SDS011;56050;55.558;-4.644;2024-02-26T02:49:01;10.13;;;3.38;;
64851;SDS011;56050;55.558;-4.644;2024-02-26T02:51:26;4.43;;;2.58;;
64851;SDS011;56050;55.558;-4.644;2024-02-26T02:53:52;7.35;;;4.80;;
64851;SDS011;56050;55.558;-4.644;2024-02-26T02:56:17;7.50;;;3.70;;
64851;SDS011;56050;55.558;-4.644;2024-02-26T02:58:43;8.73;;;3.53;;
64851;SDS011;56050;55.558;-4.644;2024-02-26T03:01:08;8.15;;;3.78;;
64851;SDS011;56050;55.558;-4.644;2024-02-26T03:03:34;9.05;;;3.40;;
64851;SDS011;56050;55.558;-4.644;2024-02-26T03:06:00;11.82;;;3.40;;
64851;SDS011;56050;55.558;-4.644;2024-02-26T03:08:26;9.32;;;2.78;;
64851;SDS011;56050;55.558;-4.644;2024-02-26T03:10:51;7.72;;;3.72;;
64851;SDS011;56050;55.558;-4.644;2024-02-26T03:13:17;10.20;;;3.47;;
64851;SDS011;56050;55.558;-4.644;2024-02-26T03:15:42;9.20;;;3.97;;
64851;SDS011;56050;55.558;-4.644;2024-02-26T03:18:08;6.72;;;2.75;;
64851;SDS011;56050;55.558;-4.644;2024-02-26T03:20:33;8.80;;;3.67;;
64851;SDS011;56050;55.558;-4.644;2024-02-26T03:22:59;10.50;;;4.55;;
64851;SDS011;56050;55.558;-4.644;2024-02-26T03:25:24;8.85;;;5.82;;
64851;SDS011;56050;55.558;-4.644;2024-02-26T03:27:50;9.23;;;4.22;;
64851;SDS011;56050;55.558;-4.644;2024-02-26T03:30:15;9.82;;;3.60;;
64851;SDS011;56050;55.558;-4.644;2024-02-26T03:32:41;7.78;;;5.35;;
64851;SDS011;56050;55.558;-4.644;2024-02-26T03:35:06;6.85;;;3.70;;
64851;SDS011;56050;55.558;-4.644;2024-02-26T03:37:33;10.23;;;3.35;;
64851;SDS011;56050;55.558;-4.644;2024-02-26T03:39:59;10.48;;;3.20;;
64851;SDS011;56050;55.558;-4.644;2024-02-26T03:42:26;6.90;;;2.95;;
64851;SDS011;56050;55.558;-4.644;2024-02-26T03:44:51;10.32;;;2.97;;
64851;SDS011;56050;55.558;-4.644;2024-02-26T03:47:17;7.10;;;3.20;;
64851;SDS011;56050;55.558;-4.644;2024-02-26T03:49:43;6.53;;;2.88;;
64851;SDS011;56050;55.558;-4.644;2024-02-26T03:52:08;8.98;;;3.60;;
64851;SDS011;56050;55.558;-4.644;2024-02-26T03:54:34;7.63;;;4.38;;
64851;SDS011;56050;55.558;-4.644;2024-02-26T03:56:59;10.27;;;5.85;;
64851;SDS011;56050;55.558;-4.644;2024-02-26T03:59:25;8.55;;;4.43;;
64851;SDS011;56050;55.558;-4.644;2024-02-26T04:01:51;10.40;;;4.82;;
64851;SDS011;56050;55.558;-4.644;2024-02-26T04:04:17;10.18;;;3.42;;
64851;SDS011;56050;55.558;-4.644;2024-02-26T04:06:45;8.27;;;3.20;;
64851;SDS011;56050;55.558;-4.644;2024-02-26T04:09:11;7.85;;;4.05;;
64851;SDS011;56050;55.558;-4.644;2024-02-26T04:11:38;11.45;;;3.80;;
64851;SDS011;56050;55.558;-4.644;2024-02-26T04:14:04;11.02;;;3.85;;
64851;SDS011;56050;55.558;-4.644;2024-02-26T04:16:31;6.38;;;2.40;;
64851;SDS011;56050;55.558;-4.644;2024-02-26T04:18:56;5.45;;;2.50;;
64851;SDS011;56050;55.558;-4.644;2024-02-26T04:21:21;7.65;;;2.90;;
64851;SDS011;56050;55.558;-4.644;2024-02-26T04:23:47;7.78;;;3.42;;
64851;SDS011;56050;55.558;-4.644;2024-02-26T04:26:14;6.82;;;2.90;;
64851;SDS011;56050;55.558;-4.644;2024-02-26T04:28:39;10.00;;;3.10;;
64851;SDS011;56050;55.558;-4.644;2024-02-26T04:31:05;10.02;;;5.07;;
64851;SDS011;56050;55.558;-4.644;2024-02-26T04:33:33;8.48;;;3.08;;
64851;SDS011;56050;55.558;-4.644;2024-02-26T04:35:59;8.23;;;3.28;;
64851;SDS011;56050;55.558;-4.644;2024-02-26T04:38:25;7.30;;;3.25;;
64851;SDS011;56050;55.558;-4.644;2024-02-26T04:40:51;10.43;;;3.92;;
64851;SDS011;56050;55.558;-4.644;2024-02-26T04:43:16;10.27;;;3.25;;
64851;SDS011;56050;55.558;-4.644;2024-02-26T04:45:43;8.10;;;3.05;;
64851;SDS011;56050;55.558;-4.644;2024-02-26T04:48:08;8.40;;;3.92;;
64851;SDS011;56050;55.558;-4.644;2024-02-26T04:50:34;8.02;;;3.15;;
64851;SDS011;56050;55.558;-4.644;2024-02-26T04:52:59;5.40;;;2.88;;
64851;SDS011;56050;55.558;-4.644;2024-02-26T04:55:24;8.73;;;4.20;;
64851;SDS011;56050;55.558;-4.644;2024-02-26T04:57:50;4.55;;;2.72;;
64851;SDS011;56050;55.558;-4.644;2024-02-26T05:00:15;5.50;;;2.00;;
64851;SDS011;56050;55.558;-4.644;2024-02-26T05:02:41;4.82;;;1.88;;
64851;SDS011;56050;55.558;-4.644;2024-02-26T05:05:07;6.40;;;2.72;;
64851;SDS011;56050;55.558;-4.644;2024-02-26T05:07:33;7.65;;;4.38;;
64851;SDS011;56050;55.558;-4.644;2024-02-26T05:09:59;5.05;;;3.97;;
64851;SDS011;56050;55.558;-4.644;2024-02-26T05:12:25;4.72;;;2.58;;
64851;SDS011;56050;55.558;-4.644;2024-02-26T05:14:50;5.53;;;2.00;;
64851;SDS011;56050;55.558;-4.644;2024-02-26T05:17:16;5.43;;;2.63;;
64851;SDS011;56050;55.558;-4.644;2024-02-26T05:19:41;3.58;;;1.50;;
64851;SDS011;56050;55.558;-4.644;2024-02-26T05:22:06;6.07;;;3.28;;
64851;SDS011;56050;55.558;-4.644;2024-02-26T05:24:32;7.25;;;2.22;;
64851;SDS011;56050;55.558;-4.644;2024-02-26T05:26:59;6.18;;;2.35;;
64851;SDS011;56050;55.558;-4.644;2024-02-26T05:29:25;3.08;;;1.75;;
64851;SDS011;56050;55.558;-4.644;2024-02-26T05:31:50;2.85;;;1.65;;
64851;SDS011;56050;55.558;-4.644;2024-02-26T05:34:16;4.00;;;1.23;;
64851;SDS011;56050;55.558;-4.644;2024-02-26T05:36:41;3.88;;;0.93;;
64851;SDS011;56050;55.558;-4.644;2024-02-26T05:39:07;6.68;;;1.58;;
64851;SDS011;56050;55.558;-4.644;2024-02-26T05:41:32;4.43;;;1.40;;
64851;SDS011;56050;55.558;-4.644;2024-02-26T05:43:58;4.30;;;1.42;;
64851;SDS011;56050;55.558;-4.644;2024-02-26T05:46:23;2.38;;;1.55;;
64851;SDS011;56050;55.558;-4.644;2024-02-26T05:48:51;4.55;;;1.80;;
64851;SDS011;56050;55.558;-4.644;2024-02-26T05:51:17;4.15;;;1.58;;
64851;SDS011;56050;55.558;-4.644;2024-02-26T05:53:42;2.45;;;1.27;;
64851;SDS011;56050;55.558;-4.644;2024-02-26T05:56:08;3.80;;;1.52;;
64851;SDS011;56050;55.558;-4.644;2024-02-26T05:58:34;2.85;;;1.67;;
64851;SDS011;56050;55.558;-4.644;2024-02-26T06:00:59;3.03;;;1.60;;
64851;SDS011;56050;55.558;-4.644;2024-02-26T06:03:25;3.40;;;1.48;;
64851;SDS011;56050;55.558;-4.644;2024-02-26T06:05:51;2.10;;;1.27;;
64851;SDS011;56050;55.558;-4.644;2024-02-26T06:08:17;4.13;;;1.50;;
64851;SDS011;56050;55.558;-4.644;2024-02-26T06:10:42;2.65;;;0.70;;
64851;SDS011;56050;55.558;-4.644;2024-02-26T06:13:08;3.85;;;2.47;;
64851;SDS011;56050;55.558;-4.644;2024-02-26T06:15:33;3.13;;;1.08;;
64851;SDS011;56050;55.558;-4.644;2024-02-26T06:17:59;2.58;;;1.13;;
64851;SDS011;56050;55.558;-4.644;2024-02-26T06:20:24;2.15;;;1.55;;
64851;SDS011;56050;55.558;-4.644;2024-02-26T06:22:50;3.28;;;0.90;;
64851;SDS011;56050;55.558;-4.644;2024-02-26T06:25:16;0.75;;;0.57;;
64851;SDS011;56050;55.558;-4.644;2024-02-26T06:27:41;1.83;;;1.45;;
64851;SDS011;56050;55.558;-4.644;2024-02-26T06:30:07;1.40;;;0.77;;
64851;SDS011;56050;55.558;-4.644;2024-02-26T06:32:33;2.35;;;1.67;;
64851;SDS011;56050;55.558;-4.644;2024-02-26T06:34:59;4.72;;;1.17;;
64851;SDS011;56050;55.558;-4.644;2024-02-26T06:37:24;1.63;;;1.30;;
64851;SDS011;56050;55.558;-4.644;2024-02-26T06:39:50;1.35;;;0.82;;
64851;SDS011;56050;55.558;-4.644;2024-02-26T06:42:17;2.35;;;0.90;;
64851;SDS011;56050;55.558;-4.644;2024-02-26T06:44:42;2.38;;;0.73;;
64851;SDS011;56050;55.558;-4.644;2024-02-26T06:47:08;3.00;;;2.28;;
64851;SDS011;56050;55.558;-4.644;2024-02-26T06:49:34;1.52;;;1.23;;
64851;SDS011;56050;55.558;-4.644;2024-02-26T06:51:59;1.35;;;1.05;;
64851;SDS011;56050;55.558;-4.644;2024-02-26T06:54:24;3.42;;;3.13;;
64851;SDS011;56050;55.558;-4.644;2024-02-26T06:56:50;0.73;;;0.52;;
64851;SDS011;56050;55.558;-4.644;2024-02-26T06:59:15;1.40;;;0.60;;
64851;SDS011;56050;55.558;-4.644;2024-02-26T07:01:41;1.88;;;1.17;;
64851;SDS011;56050;55.558;-4.644;2024-02-26T07:04:07;2.67;;;2.47;;
64851;SDS011;56050;55.558;-4.644;2024-02-26T07:06:32;2.90;;;0.82;;
64851;SDS011;56050;55.558;-4.644;2024-02-26T07:08:58;1.90;;;0.70;;
64851;SDS011;56050;55.558;-4.644;2024-02-26T07:11:23;3.15;;;2.95;;
64851;SDS011;56050;55.558;-4.644;2024-02-26T07:13:48;2.17;;;1.02;;
64851;SDS011;56050;55.558;-4.644;2024-02-26T07:16:15;1.83;;;1.25;;
64851;SDS011;56050;55.558;-4.644;2024-02-26T07:18:41;1.55;;;0.93;;
64851;SDS011;56050;55.558;-4.644;2024-02-26T07:21:08;1.75;;;1.33;;
64851;SDS011;56050;55.558;-4.644;2024-02-26T07:23:33;3.42;;;2.92;;
64851;SDS011;56050;55.558;-4.644;2024-02-26T07:25:59;2.45;;;1.00;;
64851;SDS011;56050;55.558;-4.644;2024-02-26T07:28:24;1.98;;;1.10;;
64851;SDS011;56050;55.558;-4.644;2024-02-26T07:30:50;3.03;;;1.20;;
64851;SDS011;56050;55.558;-4.644;2024-02-26T07:33:15;2.95;;;1.33;;
64851;SDS011;56050;55.558;-4.644;2024-02-26T07:35:41;3.92;;;1.30;;
64851;SDS011;56050;55.558;-4.644;2024-02-26T07:38:08;5.38;;;1.38;;
64851;SDS011;56050;55.558;-4.644;2024-02-26T07:40:34;2.78;;;1.02;;
64851;SDS011;56050;55.558;-4.644;2024-02-26T07:42:59;2.38;;;1.13;;
64851;SDS011;56050;55.558;-4.644;2024-02-26T07:45:25;3.83;;;2.03;;
64851;SDS011;56050;55.558;-4.644;2024-02-26T07:47:50;2.40;;;0.80;;
64851;SDS011;56050;55.558;-4.644;2024-02-26T07:50:16;2.00;;;0.98;;
64851;SDS011;56050;55.558;-4.644;2024-02-26T07:52:42;2.63;;;2.42;;
64851;SDS011;56050;55.558;-4.644;2024-02-26T07:57:34;3.20;;;2.95;;
64851;SDS011;56050;55.558;-4.644;2024-02-26T08:00:00;1.58;;;0.98;;
64851;SDS011;56050;55.558;-4.644;2024-02-26T08:02:27;2.17;;;0.65;;
64851;SDS011;56050;55.558;-4.644;2024-02-26T08:04:53;1.92;;;1.35;;
64851;SDS011;56050;55.558;-4.644;2024-02-26T08:07:18;1.88;;;1.20;;
64851;SDS011;56050;55.558;-4.644;2024-02-26T08:09:45;5.75;;;2.58;;
64851;SDS011;56050;55.558;-4.644;2024-02-26T08:12:11;1.90;;;1.75;;
64851;SDS011;56050;55.558;-4.644;2024-02-26T08:14:36;1.50;;;0.93;;
64851;SDS011;56050;55.558;-4.644;2024-02-26T08:17:02;2.53;;;0.85;;
64851;SDS011;56050;55.558;-4.644;2024-02-26T08:19:27;1.58;;;0.75;;
64851;SDS011;56050;55.558;-4.644;2024-02-26T08:21:53;3.00;;;0.52;;
64851;SDS011;56050;55.558;-4.644;2024-02-26T08:24:18;1.80;;;1.27;;
64851;SDS011;56050;55.558;-4.644;2024-02-26T08:26:44;1.48;;;1.27;;
64851;SDS011;56050;55.558;-4.644;2024-02-26T08:29:09;3.47;;;1.65;;
64851;SDS011;56050;55.558;-4.644;2024-02-26T08:31:35;5.43;;;1.40;;
64851;SDS011;56050;55.558;-4.644;2024-02-26T08:34:03;6.88;;;2.40;;
64851;SDS011;56050;55.558;-4.644;2024-02-26T08:36:30;4.43;;;1.45;;
64851;SDS011;56050;55.558;-4.644;2024-02-26T08:38:57;2.75;;;1.23;;
64851;SDS011;56050;55.558;-4.644;2024-02-26T08:41:22;4.97;;;1.98;;
64851;SDS011;56050;55.558;-4.644;2024-02-26T08:43:48;2.38;;;1.20;;
64851;SDS011;56050;55.558;-4.644;2024-02-26T08:46:13;3.85;;;2.47;;
64851;SDS011;56050;55.558;-4.644;2024-02-26T08:48:39;2.67;;;0.93;;
64851;SDS011;56050;55.558;-4.644;2024-02-26T08:53:35;4.05;;;1.30;;
64851;SDS011;56050;55.558;-4.644;2024-02-26T08:56:01;9.48;;;1.67;;
64851;SDS011;56050;55.558;-4.644;2024-02-26T08:58:29;2.15;;;1.15;;
64851;SDS011;56050;55.558;-4.644;2024-02-26T09:00:55;3.65;;;1.45;;
64851;SDS011;56050;55.558;-4.644;2024-02-26T09:03:20;4.45;;;3.17;;
64851;SDS011;56050;55.558;-4.644;2024-02-26T09:05:46;3.63;;;1.13;;
64851;SDS011;56050;55.558;-4.644;2024-02-26T09:08:12;4.78;;;1.92;;
64851;SDS011;56050;55.558;-4.644;2024-02-26T09:10:38;5.22;;;0.82;;
64851;SDS011;56050;55.558;-4.644;2024-02-26T09:13:04;3.60;;;1.63;;
64851;SDS011;56050;55.558;-4.644;2024-02-26T09:15:29;2.80;;;1.13;;
64851;SDS011;56050;55.558;-4.644;2024-02-26T09:17:55;1.58;;;0.73;;
64851;SDS011;56050;55.558;-4.644;2024-02-26T09:20:20;0.88;;;0.63;;
64851;SDS011;56050;55.558;-4.644;2024-02-26T09:22:47;0.98;;;0.88;;
64851;SDS011;56050;55.558;-4.644;2024-02-26T09:25:13;2.17;;;1.98;;
64851;SDS011;56050;55.558;-4.644;2024-02-26T09:27:40;2.33;;;1.88;;
64851;SDS011;56050;55.558;-4.644;2024-02-26T09:30:07;2.00;;;1.23;;
64851;SDS011;56050;55.558;-4.644;2024-02-26T09:32:33;3.10;;;1.17;;
64851;SDS011;56050;55.558;-4.644;2024-02-26T09:34:58;2.42;;;0.68;;
64851;SDS011;56050;55.558;-4.644;2024-02-26T09:37:24;2.47;;;0.40;;
64851;SDS011;56050;55.558;-4.644;2024-02-26T09:39:50;2.72;;;1.00;;
64851;SDS011;56050;55.558;-4.644;2024-02-26T09:42:15;1.38;;;0.40;;
64851;SDS011;56050;55.558;-4.644;2024-02-26T09:44:44;0.85;;;0.70;;
64851;SDS011;56050;55.558;-4.644;2024-02-26T09:47:10;1.17;;;0.57;;
64851;SDS011;56050;55.558;-4.644;2024-02-26T09:49:38;1.13;;;1.02;;
64851;SDS011;56050;55.558;-4.644;2024-02-26T09:52:07;2.05;;;1.20;;
64851;SDS011;56050;55.558;-4.644;2024-02-26T09:54:34;0.88;;;0.45;;
64851;SDS011;56050;55.558;-4.644;2024-02-26T09:57:00;1.08;;;0.47;;
64851;SDS011;56050;55.558;-4.644;2024-02-26T09:59:29;1.77;;;0.55;;
64851;SDS011;56050;55.558;-4.644;2024-02-26T10:01:59;2.05;;;0.55;;
64851;SDS011;56050;55.558;-4.644;2024-02-26T10:04:26;2.33;;;0.98;;
64851;SDS011;56050;55.558;-4.644;2024-02-26T10:06:51;1.42;;;1.33;;
64851;SDS011;56050;55.558;-4.644;2024-02-26T10:11:43;1.17;;;0.60;;
64851;SDS011;56050;55.558;-4.644;2024-02-26T10:14:09;1.70;;;1.23;;
64851;SDS011;56050;55.558;-4.644;2024-02-26T10:16:34;1.30;;;0.93;;
64851;SDS011;56050;55.558;-4.644;2024-02-26T10:19:00;1.17;;;0.60;;
64851;SDS011;56050;55.558;-4.644;2024-02-26T10:21:26;1.13;;;0.47;;
64851;SDS011;56050;55.558;-4.644;2024-02-26T10:23:51;1.00;;;0.68;;
64851;SDS011;56050;55.558;-4.644;2024-02-26T10:26:17;1.98;;;1.02;;
64851;SDS011;56050;55.558;-4.644;2024-02-26T10:28:43;2.10;;;1.05;;
64851;SDS011;56050;55.558;-4.644;2024-02-26T10:31:09;1.02;;;0.70;;
64851;SDS011;56050;55.558;-4.644;2024-02-26T10:33:36;3.33;;;2.67;;
64851;SDS011;56050;55.558;-4.644;2024-02-26T10:36:05;2.20;;;0.93;;
64851;SDS011;56050;55.558;-4.644;2024-02-26T10:38:33;1.27;;;0.40;;
64851;SDS011;56050;55.558;-4.644;2024-02-26T10:41:01;1.63;;;1.13;;
64851;SDS011;56050;55.558;-4.644;2024-02-26T10:43:30;0.68;;;0.68;;
64851;SDS011;56050;55.558;-4.644;2024-02-26T10:45:55;1.25;;;0.75;;
64851;SDS011;56050;55.558;-4.644;2024-02-26T10:48:21;1.75;;;1.20;;
64851;SDS011;56050;55.558;-4.644;2024-02-26T10:50:47;1.00;;;0.43;;
64851;SDS011;56050;55.558;-4.644;2024-02-26T10:53:17;0.82;;;0.55;;
64851;SDS011;56050;55.558;-4.644;2024-02-26T10:55:48;1.30;;;0.40;;
64851;SDS011;56050;55.558;-4.644;2024-02-26T10:58:18;1.42;;;0.55;;
64851;SDS011;56050;55.558;-4.644;2024-02-26T11:03:12;0.93;;;0.65;;
64851;SDS011;56050;55.558;-4.644;2024-02-26T11:05:41;1.65;;;1.02;;
64851;SDS011;56050;55.558;-4.644;2024-02-26T11:08:07;2.08;;;0.90;;
64851;SDS011;56050;55.558;-4.644;2024-02-26T11:10:34;1.20;;;0.88;;
64851;SDS011;56050;55.558;-4.644;2024-02-26T11:13:02;1.98;;;1.88;;
64851;SDS011;56050;55.558;-4.644;2024-02-26T11:15:28;1.00;;;0.50;;
64851;SDS011;56050;55.558;-4.644;2024-02-26T11:20:20;0.95;;;0.93;;
64851;SDS011;56050;55.558;-4.644;2024-02-26T11:22:47;1.48;;;1.38;;
64851;SDS011;56050;55.558;-4.644;2024-02-26T11:27:52;1.95;;;0.70;;
64851;SDS011;56050;55.558;-4.644;2024-02-26T11:30:26;0.95;;;0.85;;
64851;SDS011;56050;55.558;-4.644;2024-02-26T11:32:56;1.92;;;1.65;;
64851;SDS011;56050;55.558;-4.644;2024-02-26T11:37:54;0.63;;;0.45;;
64851;SDS011;56050;55.558;-4.644;2024-02-26T11:40:24;1.30;;;0.40;;
64851;SDS011;56050;55.558;-4.644;2024-02-26T11:42:53;2.83;;;1.27;;
64851;SDS011;56050;55.558;-4.644;2024-02-26T11:48:04;1.17;;;0.90;;
64851;SDS011;56050;55.558;-4.644;2024-02-26T11:50:36;1.95;;;0.52;;
64851;SDS011;56050;55.558;-4.644;2024-02-26T11:53:19;1.23;;;0.52;;
64851;SDS011;56050;55.558;-4.644;2024-02-26T11:55:48;3.15;;;0.85;;
64851;SDS011;56050;55.558;-4.644;2024-02-26T11:58:33;1.20;;;1.17;;
64851;SDS011;56050;55.558;-4.644;2024-02-26T12:03:24;0.73;;;0.60;;
64851;SDS011;56050;55.558;-4.644;2024-02-26T12:08:16;1.20;;;0.98;;
64851;SDS011;56050;55.558;-4.644;2024-02-26T12:10:44;1.00;;;1.00;;
64851;SDS011;56050;55.558;-4.644;2024-02-26T12:13:11;0.98;;;0.75;;
64851;SDS011;56050;55.558;-4.644;2024-02-26T12:15:41;0.63;;;0.22;;
64851;SDS011;56050;55.558;-4.644;2024-02-26T12:18:08;0.95;;;0.57;;
64851;SDS011;56050;55.558;-4.644;2024-02-26T12:20:35;1.10;;;0.52;;
64851;SDS011;56050;55.558;-4.644;2024-02-26T12:23:02;2.40;;;0.82;;
64851;SDS011;56050;55.558;-4.644;2024-02-26T12:25:31;2.08;;;0.57;;
64851;SDS011;56050;55.558;-4.644;2024-02-26T12:27:58;0.82;;;0.63;;
64851;SDS011;56050;55.558;-4.644;2024-02-26T12:30:24;0.45;;;0.35;;
64851;SDS011;56050;55.558;-4.644;2024-02-26T12:32:55;0.45;;;0.38;;
64851;SDS011;56050;55.558;-4.644;2024-02-26T12:35:22;0.50;;;0.50;;
64851;SDS011;56050;55.558;-4.644;2024-02-26T12:37:49;0.77;;;0.32;;
64851;SDS011;56050;55.558;-4.644;2024-02-26T12:40:16;0.95;;;0.50;;
64851;SDS011;56050;55.558;-4.644;2024-02-26T12:42:42;0.85;;;0.82;;
64851;SDS011;56050;55.558;-4.644;2024-02-26T12:47:38;0.75;;;0.68;;
64851;SDS011;56050;55.558;-4.644;2024-02-26T12:50:07;1.70;;;1.60;;
64851;SDS011;56050;55.558;-4.644;2024-02-26T12:52:35;1.80;;;1.48;;
64851;SDS011;56050;55.558;-4.644;2024-02-26T12:55:02;0.55;;;0.55;;
64851;SDS011;56050;55.558;-4.644;2024-02-26T12:57:32;1.85;;;0.35;;
64851;SDS011;56050;55.558;-4.644;2024-02-26T13:00:01;1.10;;;0.70;;
64851;SDS011;56050;55.558;-4.644;2024-02-26T13:02:28;1.25;;;0.43;;
64851;SDS011;56050;55.558;-4.644;2024-02-26T13:04:55;0.75;;;0.75;;
64851;SDS011;56050;55.558;-4.644;2024-02-26T13:07:22;2.80;;;0.55;;
64851;SDS011;56050;55.558;-4.644;2024-02-26T13:09:48;1.48;;;0.20;;
64851;SDS011;56050;55.558;-4.644;2024-02-26T13:14:39;1.90;;;0.30;;
64851;SDS011;56050;55.558;-4.644;2024-02-26T13:19:30;0.87;;;0.53;;
64851;SDS011;56050;55.558;-4.644;2024-02-26T13:24:28;2.28;;;0.43;;
64851;SDS011;56050;55.558;-4.644;2024-02-26T13:26:56;0.80;;;0.80;;
64851;SDS011;56050;55.558;-4.644;2024-02-26T13:31:47;0.50;;;0.50;;
64851;SDS011;56050;55.558;-4.644;2024-02-26T13:36:56;1.17;;;1.13;;
64851;SDS011;56050;55.558;-4.644;2024-02-26T13:39:25;2.05;;;0.90;;
64851;SDS011;56050;55.558;-4.644;2024-02-26T13:41:51;1.27;;;0.73;;
64851;SDS011;56050;55.558;-4.644;2024-02-26T13:46:43;1.10;;;0.60;;
64851;SDS011;56050;55.558;-4.644;2024-02-26T13:51:34;0.57;;;0.57;;
64851;SDS011;56050;55.558;-4.644;2024-02-26T13:54:01;2.00;;;0.82;;
64851;SDS011;56050;55.558;-4.644;2024-02-26T13:56:27;1.50;;;0.88;;
64851;SDS011;56050;55.558;-4.644;2024-02-26T14:01:18;0.90;;;0.80;;
64851;SDS011;56050;55.558;-4.644;2024-02-26T14:06:10;0.32;;;0.25;;
64851;SDS011;56050;55.558;-4.644;2024-02-26T14:11:00;0.83;;;0.60;;
64851;SDS011;56050;55.558;-4.644;2024-02-26T14:15:52;0.73;;;0.63;;
64851;SDS011;56050;55.558;-4.644;2024-02-26T14:20:42;0.83;;;0.83;;
64851;SDS011;56050;55.558;-4.644;2024-02-26T14:23:09;1.40;;;0.43;;
64851;SDS011;56050;55.558;-4.644;2024-02-26T14:28:01;0.68;;;0.52;;
64851;SDS011;56050;55.558;-4.644;2024-02-26T14:32:52;1.10;;;1.10;;
64851;SDS011;56050;55.558;-4.644;2024-02-26T14:37:44;0.30;;;0.20;;
64851;SDS011;56050;55.558;-4.644;2024-02-26T14:40:13;0.85;;;0.85;;
64851;SDS011;56050;55.558;-4.644;2024-02-26T14:45:05;0.60;;;0.60;;
64851;SDS011;56050;55.558;-4.644;2024-02-26T14:47:34;1.73;;;0.65;;
64851;SDS011;56050;55.558;-4.644;2024-02-26T14:50:00;1.80;;;1.70;;
64851;SDS011;56050;55.558;-4.644;2024-02-26T14:52:25;0.45;;;0.38;;
64851;SDS011;56050;55.558;-4.644;2024-02-26T14:57:16;0.90;;;0.45;;
64851;SDS011;56050;55.558;-4.644;2024-02-26T15:02:09;1.10;;;0.63;;
64851;SDS011;56050;55.558;-4.644;2024-02-26T15:07:00;0.57;;;0.25;;
64851;SDS011;56050;55.558;-4.644;2024-02-26T15:11:51;1.57;;;0.57;;
64851;SDS011;56050;55.558;-4.644;2024-02-26T15:14:17;1.33;;;0.90;;
64851;SDS011;56050;55.558;-4.644;2024-02-26T15:19:08;1.00;;;1.00;;
64851;SDS011;56050;55.558;-4.644;2024-02-26T15:23:59;0.50;;;0.43;;
64851;SDS011;56050;55.558;-4.644;2024-02-26T15:28:51;0.63;;;0.63;;
64851;SDS011;56050;55.558;-4.644;2024-02-26T15:31:17;0.45;;;0.45;;
64851;SDS011;56050;55.558;-4.644;2024-02-26T15:33:44;0.77;;;0.77;;
64851;SDS011;56050;55.558;-4.644;2024-02-26T15:36:09;1.75;;;1.65;;
64851;SDS011;56050;55.558;-4.644;2024-02-26T15:38:36;1.23;;;1.13;;
64851;SDS011;56050;55.558;-4.644;2024-02-26T15:41:01;1.08;;;0.95;;
64851;SDS011;56050;55.558;-4.644;2024-02-26T15:45:52;1.03;;;0.47;;
64851;SDS011;56050;55.558;-4.644;2024-02-26T15:50:43;0.43;;;0.43;;
64851;SDS011;56050;55.558;-4.644;2024-02-26T15:55:34;0.87;;;0.87;;
64851;SDS011;56050;55.558;-4.644;2024-02-26T16:00:25;0.43;;;0.43;;
64851;SDS011;56050;55.558;-4.644;2024-02-26T16:02:51;0.65;;;0.65;;
64851;SDS011;56050;55.558;-4.644;2024-02-26T16:07:49;0.52;;;0.28;;
64851;SDS011;56050;55.558;-4.644;2024-02-26T16:10:18;1.20;;;0.35;;
64851;SDS011;56050;55.558;-4.644;2024-02-26T16:15:14;0.68;;;0.50;;